sensor_id;sensor_type;location;lat;lon;timestamp;pressure;altitude;pressure_sealevel;temperature;humidity
35888;BME280;21990;42.540;23.496;2023-04-12T00:02:14;92583.34;;;8.46;77.52
35888;BME280;21990;42.540;23.496;2023-04-12T00:04:40;92582.03;;;8.47;77.00
35888;BME280;21990;42.540;23.496;2023-04-12T00:07:05;92590.13;;;8.50;76.84
35888;BME280;21990;42.540;23.496;2023-04-12T00:09:34;92578.81;;;8.43;76.89
35888;BME280;21990;42.540;23.496;2023-04-12T00:12:00;92589.16;;;8.48;77.17
35888;BME280;21990;42.540;23.496;2023-04-12T00:14:27;92584.63;;;8.45;76.96
35888;BME280;21990;42.540;23.496;2023-04-12T00:16:53;92579.75;;;8.45;76.78
35888;BME280;21990;42.540;23.496;2023-04-12T00:19:19;92578.81;;;8.43;76.87
35888;BME280;21990;42.540;23.496;2023-04-12T00:21:45;92578.06;;;8.42;76.86
35888;BME280;21990;42.540;23.496;2023-04-12T00:24:11;92570.38;;;8.43;77.00
35888;BME280;21990;42.540;23.496;2023-04-12T00:26:37;92558.59;;;8.44;76.74
35888;BME280;21990;42.540;23.496;2023-04-12T00:29:02;92560.13;;;8.45;76.54
35888;BME280;21990;42.540;23.496;2023-04-12T00:31:28;92564.22;;;8.44;76.83
35888;BME280;21990;42.540;23.496;2023-04-12T00:33:53;92547.94;;;8.43;76.65
35888;BME280;21990;42.540;23.496;2023-04-12T00:36:19;92565.31;;;8.41;76.99
35888;BME280;21990;42.540;23.496;2023-04-12T00:38:45;92549.97;;;8.42;77.05
35888;BME280;21990;42.540;23.496;2023-04-12T00:41:12;92558.59;;;8.44;77.16
35888;BME280;21990;42.540;23.496;2023-04-12T00:43:39;92562.72;;;8.43;77.07
35888;BME280;21990;42.540;23.496;2023-04-12T00:46:06;92559.69;;;8.41;77.31
35888;BME280;21990;42.540;23.496;2023-04-12T00:48:32;92561.00;;;8.40;77.29
35888;BME280;21990;42.540;23.496;2023-04-12T00:50:59;92559.81;;;8.36;77.13
35888;BME280;21990;42.540;23.496;2023-04-12T00:53:25;92553.88;;;8.39;77.15
35888;BME280;21990;42.540;23.496;2023-04-12T00:55:52;92567.34;;;8.41;77.28
35888;BME280;21990;42.540;23.496;2023-04-12T00:58:20;92556.47;;;8.37;77.67
35888;BME280;21990;42.540;23.496;2023-04-12T01:00:46;92562.06;;;8.37;77.47
35888;BME280;21990;42.540;23.496;2023-04-12T01:03:22;92560.34;;;8.34;77.80
35888;BME280;21990;42.540;23.496;2023-04-12T01:05:59;92564.69;;;8.35;77.76
35888;BME280;21990;42.540;23.496;2023-04-12T01:08:45;92555.50;;;8.35;77.80
35888;BME280;21990;42.540;23.496;2023-04-12T01:11:28;92556.25;;;8.35;77.59
35888;BME280;21990;42.540;23.496;2023-04-12T01:14:21;92550.31;;;8.39;77.90
35888;BME280;21990;42.540;23.496;2023-04-12T01:16:56;92556.25;;;8.35;77.81
35888;BME280;21990;42.540;23.496;2023-04-12T01:19:40;92544.38;;;8.29;78.15
35888;BME280;21990;42.540;23.496;2023-04-12T01:27:54;92535.50;;;8.25;78.55
35888;BME280;21990;42.540;23.496;2023-04-12T01:30:21;92531.00;;;8.22;78.65
35888;BME280;21990;42.540;23.496;2023-04-12T01:32:50;92533.47;;;8.26;78.43
35888;BME280;21990;42.540;23.496;2023-04-12T01:35:25;92521.47;;;8.25;78.43
35888;BME280;21990;42.540;23.496;2023-04-12T01:37:51;92520.75;;;8.25;78.39
35888;BME280;21990;42.540;23.496;2023-04-12T01:40:17;92534.38;;;8.21;78.46
35888;BME280;21990;42.540;23.496;2023-04-12T01:42:43;92526.38;;;8.25;78.37
35888;BME280;21990;42.540;23.496;2023-04-12T01:45:09;92508.34;;;8.20;78.40
35888;BME280;21990;42.540;23.496;2023-04-12T01:47:35;92518.25;;;8.21;78.57
35888;BME280;21990;42.540;23.496;2023-04-12T01:52:54;92521.06;;;8.21;78.52
35888;BME280;21990;42.540;23.496;2023-04-12T01:55:22;92521.28;;;8.23;78.84
35888;BME280;21990;42.540;23.496;2023-04-12T01:57:50;92519.78;;;8.22;78.40
35888;BME280;21990;42.540;23.496;2023-04-12T02:00:18;92527.84;;;8.26;78.57
35888;BME280;21990;42.540;23.496;2023-04-12T02:02:44;92530.88;;;8.28;78.72
35888;BME280;21990;42.540;23.496;2023-04-12T02:05:11;92524.63;;;8.22;78.79
35888;BME280;21990;42.540;23.496;2023-04-12T02:07:38;92524.09;;;8.23;78.88
35888;BME280;21990;42.540;23.496;2023-04-12T02:10:04;92526.13;;;8.23;78.84
35888;BME280;21990;42.540;23.496;2023-04-12T02:12:30;92517.94;;;8.25;78.99
35888;BME280;21990;42.540;23.496;2023-04-12T02:14:55;92526.38;;;8.25;78.84
35888;BME280;21990;42.540;23.496;2023-04-12T02:17:22;92525.03;;;8.26;78.66
35888;BME280;21990;42.540;23.496;2023-04-12T02:19:47;92512.88;;;8.23;78.66
35888;BME280;21990;42.540;23.496;2023-04-12T02:22:13;92511.69;;;8.19;79.08
35888;BME280;21990;42.540;23.496;2023-04-12T02:24:38;92515.25;;;8.19;78.97
35888;BME280;21990;42.540;23.496;2023-04-12T02:27:04;92510.31;;;8.12;79.12
35888;BME280;21990;42.540;23.496;2023-04-12T02:29:30;92517.81;;;8.17;79.15
35888;BME280;21990;42.540;23.496;2023-04-12T02:31:56;92509.22;;;8.15;79.03
35888;BME280;21990;42.540;23.496;2023-04-12T02:34:21;92507.69;;;8.14;79.11
35888;BME280;21990;42.540;23.496;2023-04-12T02:36:47;92512.88;;;8.10;79.44
35888;BME280;21990;42.540;23.496;2023-04-12T02:39:13;92506.41;;;8.15;79.31
35888;BME280;21990;42.540;23.496;2023-04-12T02:41:43;92511.25;;;8.15;78.93
35888;BME280;21990;42.540;23.496;2023-04-12T02:44:09;92507.84;;;8.08;79.11
35888;BME280;21990;42.540;23.496;2023-04-12T02:46:34;92513.44;;;8.08;79.23
35888;BME280;21990;42.540;23.496;2023-04-12T02:48:59;92509.88;;;8.08;79.58
35888;BME280;21990;42.540;23.496;2023-04-12T02:51:25;92520.00;;;8.11;79.66
35888;BME280;21990;42.540;23.496;2023-04-12T02:53:52;92509.88;;;8.08;79.72
35888;BME280;21990;42.540;23.496;2023-04-12T02:56:18;92520.34;;;8.07;79.54
35888;BME280;21990;42.540;23.496;2023-04-12T02:58:46;92510.63;;;8.08;79.80
35888;BME280;21990;42.540;23.496;2023-04-12T03:01:12;92509.13;;;8.07;79.71
35888;BME280;21990;42.540;23.496;2023-04-12T03:03:38;92505.34;;;8.05;79.42
35888;BME280;21990;42.540;23.496;2023-04-12T03:06:05;92517.53;;;8.07;79.23
35888;BME280;21990;42.540;23.496;2023-04-12T03:08:30;92508.06;;;7.97;79.57
35888;BME280;21990;42.540;23.496;2023-04-12T03:10:56;92516.91;;;8.01;79.23
35888;BME280;21990;42.540;23.496;2023-04-12T03:13:22;92513.88;;;7.99;79.51
35888;BME280;21990;42.540;23.496;2023-04-12T03:15:48;92513.56;;;8.03;79.00
35888;BME280;21990;42.540;23.496;2023-04-12T03:18:17;92507.94;;;8.03;78.92
35888;BME280;21990;42.540;23.496;2023-04-12T03:20:45;92508.50;;;8.01;79.08
35888;BME280;21990;42.540;23.496;2023-04-12T03:23:11;92516.69;;;7.99;79.29
35888;BME280;21990;42.540;23.496;2023-04-12T03:25:36;92510.88;;;7.97;79.86
35888;BME280;21990;42.540;23.496;2023-04-12T03:28:02;92504.19;;;8.00;79.76
35888;BME280;21990;42.540;23.496;2023-04-12T03:30:28;92509.13;;;7.94;80.53
35888;BME280;21990;42.540;23.496;2023-04-12T03:32:54;92507.66;;;7.93;81.09
35888;BME280;21990;42.540;23.496;2023-04-12T03:35:21;92507.75;;;8.01;80.63
35888;BME280;21990;42.540;23.496;2023-04-12T03:37:46;92490.78;;;8.06;80.74
35888;BME280;21990;42.540;23.496;2023-04-12T03:40:12;92490.09;;;8.13;80.45
35888;BME280;21990;42.540;23.496;2023-04-12T03:42:37;92492.72;;;8.11;80.66
35888;BME280;21990;42.540;23.496;2023-04-12T03:45:03;92509.56;;;8.11;80.90
35888;BME280;21990;42.540;23.496;2023-04-12T03:47:29;92502.09;;;8.14;80.77
35888;BME280;21990;42.540;23.496;2023-04-12T03:50:02;92518.16;;;8.13;80.97
35888;BME280;21990;42.540;23.496;2023-04-12T03:52:27;92511.91;;;8.21;80.32
35888;BME280;21990;42.540;23.496;2023-04-12T03:54:53;92514.28;;;8.17;80.65
35888;BME280;21990;42.540;23.496;2023-04-12T03:57:18;92524.63;;;8.22;80.38
35888;BME280;21990;42.540;23.496;2023-04-12T03:59:44;92523.13;;;8.21;80.22
35888;BME280;21990;42.540;23.496;2023-04-12T04:02:09;92511.56;;;8.24;79.86
35888;BME280;21990;42.540;23.496;2023-04-12T04:04:35;92517.72;;;8.23;80.15
35888;BME280;21990;42.540;23.496;2023-04-12T04:07:02;92521.81;;;8.22;80.37
35888;BME280;21990;42.540;23.496;2023-04-12T04:09:28;92520.53;;;8.23;80.25
35888;BME280;21990;42.540;23.496;2023-04-12T04:11:53;92517.94;;;8.25;80.54
35888;BME280;21990;42.540;23.496;2023-04-12T04:14:19;92525.38;;;8.22;81.65
35888;BME280;21990;42.540;23.496;2023-04-12T04:16:44;92525.94;;;8.21;81.88
35888;BME280;21990;42.540;23.496;2023-04-12T04:19:10;92509.22;;;8.15;82.16
35888;BME280;21990;42.540;23.496;2023-04-12T04:21:35;92521.31;;;8.10;82.38
35888;BME280;21990;42.540;23.496;2023-04-12T04:24:01;92510.50;;;8.14;81.45
35888;BME280;21990;42.540;23.496;2023-04-12T04:26:27;92510.50;;;8.14;81.45
35888;BME280;21990;42.540;23.496;2023-04-12T04:28:59;92522.16;;;8.18;80.64
35888;BME280;21990;42.540;23.496;2023-04-12T04:31:29;92515.44;;;8.21;79.87
35888;BME280;21990;42.540;23.496;2023-04-12T04:34:02;92515.69;;;8.23;79.68
35888;BME280;21990;42.540;23.496;2023-04-12T04:36:32;92525.03;;;8.26;79.16
35888;BME280;21990;42.540;23.496;2023-04-12T04:38:57;92518.16;;;8.27;78.89
35888;BME280;21990;42.540;23.496;2023-04-12T04:41:23;92523.97;;;8.29;79.04
35888;BME280;21990;42.540;23.496;2023-04-12T04:43:49;92532.19;;;8.27;79.23
35888;BME280;21990;42.540;23.496;2023-04-12T04:46:15;92538.78;;;8.29;79.19
35888;BME280;21990;42.540;23.496;2023-04-12T04:48:41;92518.78;;;8.33;78.76
35888;BME280;21990;42.540;23.496;2023-04-12T04:51:07;92532.63;;;8.31;78.84
35888;BME280;21990;42.540;23.496;2023-04-12T04:53:33;92535.09;;;8.34;78.40
35888;BME280;21990;42.540;23.496;2023-04-12T04:55:59;92526.16;;;8.36;77.61
35888;BME280;21990;42.540;23.496;2023-04-12T04:58:25;92532.28;;;8.34;77.21
35888;BME280;21990;42.540;23.496;2023-04-12T05:00:51;92533.81;;;8.35;76.48
35888;BME280;21990;42.540;23.496;2023-04-12T05:03:20;92538.31;;;8.38;76.26
35888;BME280;21990;42.540;23.496;2023-04-12T05:05:49;92537.56;;;8.38;76.17
35888;BME280;21990;42.540;23.496;2023-04-12T05:08:15;92541.34;;;8.40;75.43
35888;BME280;21990;42.540;23.496;2023-04-12T05:10:42;92545.47;;;8.39;75.87
35888;BME280;21990;42.540;23.496;2023-04-12T05:13:08;92548.69;;;8.43;75.93
35888;BME280;21990;42.540;23.496;2023-04-12T05:15:34;92550.94;;;8.45;75.41
35888;BME280;21990;42.540;23.496;2023-04-12T05:18:00;92550.19;;;8.44;75.19
35888;BME280;21990;42.540;23.496;2023-04-12T05:20:25;92544.56;;;8.44;75.15
35888;BME280;21990;42.540;23.496;2023-04-12T05:22:51;92548.56;;;8.49;74.94
35888;BME280;21990;42.540;23.496;2023-04-12T05:25:16;92538.63;;;8.48;74.71
35888;BME280;21990;42.540;23.496;2023-04-12T05:27:43;92554.38;;;8.51;74.64
35888;BME280;21990;42.540;23.496;2023-04-12T05:30:09;92539.38;;;8.48;74.53
35888;BME280;21990;42.540;23.496;2023-04-12T05:32:35;92555.69;;;8.50;74.38
35888;BME280;21990;42.540;23.496;2023-04-12T05:35:00;92561.28;;;8.63;73.67
35888;BME280;21990;42.540;23.496;2023-04-12T05:37:25;92573.00;;;8.75;73.94
35888;BME280;21990;42.540;23.496;2023-04-12T05:39:52;92563.03;;;8.87;72.97
35888;BME280;21990;42.540;23.496;2023-04-12T05:42:18;92556.91;;;8.96;71.81
35888;BME280;21990;42.540;23.496;2023-04-12T05:44:43;92570.91;;;9.09;70.87
35888;BME280;21990;42.540;23.496;2023-04-12T05:47:09;92557.28;;;9.13;70.27
35888;BME280;21990;42.540;23.496;2023-04-12T05:49:34;92557.97;;;9.06;69.78
35888;BME280;21990;42.540;23.496;2023-04-12T05:52:01;92575.97;;;9.11;69.76
35888;BME280;21990;42.540;23.496;2023-04-12T05:54:26;92582.63;;;9.00;70.08
35888;BME280;21990;42.540;23.496;2023-04-12T05:56:52;92587.41;;;8.92;69.10
35888;BME280;21990;42.540;23.496;2023-04-12T05:59:21;92587.22;;;8.90;69.69
35888;BME280;21990;42.540;23.496;2023-04-12T06:01:47;92578.78;;;8.90;68.58
35888;BME280;21990;42.540;23.496;2023-04-12T06:04:13;92577.16;;;8.94;69.38
35888;BME280;21990;42.540;23.496;2023-04-12T06:06:39;92578.47;;;9.14;69.13
35888;BME280;21990;42.540;23.496;2023-04-12T06:09:04;92576.31;;;9.28;68.47
35888;BME280;21990;42.540;23.496;2023-04-12T06:11:30;92586.88;;;9.35;68.14
35888;BME280;21990;42.540;23.496;2023-04-12T06:13:59;92589.91;;;9.37;67.57
35888;BME280;21990;42.540;23.496;2023-04-12T06:16:25;92589.44;;;9.25;67.32
35888;BME280;21990;42.540;23.496;2023-04-12T06:18:50;92585.03;;;9.17;68.13
35888;BME280;21990;42.540;23.496;2023-04-12T06:21:17;92587.22;;;9.11;68.04
35888;BME280;21990;42.540;23.496;2023-04-12T06:23:42;92592.41;;;9.06;68.26
35888;BME280;21990;42.540;23.496;2023-04-12T06:26:08;92602.03;;;9.11;67.60
35888;BME280;21990;42.540;23.496;2023-04-12T06:28:33;92608.75;;;9.08;67.06
35888;BME280;21990;42.540;23.496;2023-04-12T06:30:59;92600.53;;;9.10;67.34
35888;BME280;21990;42.540;23.496;2023-04-12T06:33:25;92621.94;;;9.00;68.67
35888;BME280;21990;42.540;23.496;2023-04-12T06:35:51;92635.03;;;8.97;68.76
35888;BME280;21990;42.540;23.496;2023-04-12T06:38:17;92630.22;;;8.85;70.11
35888;BME280;21990;42.540;23.496;2023-04-12T06:40:43;92636.31;;;8.63;71.35
35888;BME280;21990;42.540;23.496;2023-04-12T06:43:08;92630.84;;;8.44;73.42
35888;BME280;21990;42.540;23.496;2023-04-12T06:45:34;92652.13;;;8.39;74.34
35888;BME280;21990;42.540;23.496;2023-04-12T06:47:59;92645.50;;;8.24;74.98
35888;BME280;21990;42.540;23.496;2023-04-12T06:50:25;92646.59;;;8.07;77.12
35888;BME280;21990;42.540;23.496;2023-04-12T06:52:52;92643.56;;;8.05;78.11
35888;BME280;21990;42.540;23.496;2023-04-12T06:55:17;92643.66;;;8.00;77.46
35888;BME280;21990;42.540;23.496;2023-04-12T06:57:44;92633.53;;;7.97;79.41
35888;BME280;21990;42.540;23.496;2023-04-12T07:00:10;92635.69;;;7.91;80.68
35888;BME280;21990;42.540;23.496;2023-04-12T07:02:36;92633.84;;;7.93;79.91
35888;BME280;21990;42.540;23.496;2023-04-12T07:05:04;92628.69;;;7.97;79.99
35888;BME280;21990;42.540;23.496;2023-04-12T07:07:30;92625.31;;;7.99;81.05
35888;BME280;21990;42.540;23.496;2023-04-12T07:09:55;92633.53;;;8.10;80.87
35888;BME280;21990;42.540;23.496;2023-04-12T07:12:21;92637.31;;;8.13;80.17
35888;BME280;21990;42.540;23.496;2023-04-12T07:14:47;92625.22;;;8.18;79.45
35888;BME280;21990;42.540;23.496;2023-04-12T07:17:12;92618.09;;;8.17;79.05
35888;BME280;21990;42.540;23.496;2023-04-12T07:19:39;92614.22;;;8.20;79.39
35888;BME280;21990;42.540;23.496;2023-04-12T07:22:06;92602.13;;;8.25;78.64
35888;BME280;21990;42.540;23.496;2023-04-12T07:24:32;92606.03;;;8.35;77.08
35888;BME280;21990;42.540;23.496;2023-04-12T07:26:57;92588.00;;;8.43;76.02
35888;BME280;21990;42.540;23.496;2023-04-12T07:29:23;92595.88;;;8.79;76.89
35888;BME280;21990;42.540;23.496;2023-04-12T07:31:48;92593.25;;;9.15;74.86
35888;BME280;21990;42.540;23.496;2023-04-12T07:34:14;92595.31;;;9.35;72.33
35888;BME280;21990;42.540;23.496;2023-04-12T07:36:40;92592.50;;;9.56;71.08
35888;BME280;21990;42.540;23.496;2023-04-12T07:39:05;92588.34;;;9.77;70.87
35888;BME280;21990;42.540;23.496;2023-04-12T07:41:31;92587.38;;;9.95;68.13
35888;BME280;21990;42.540;23.496;2023-04-12T07:43:56;92608.28;;;10.08;67.09
35888;BME280;21990;42.540;23.496;2023-04-12T07:46:21;92601.19;;;10.14;68.19
35888;BME280;21990;42.540;23.496;2023-04-12T07:48:47;92593.41;;;10.28;66.19
35888;BME280;21990;42.540;23.496;2023-04-12T07:51:13;92588.97;;;10.40;65.89
35888;BME280;21990;42.540;23.496;2023-04-12T07:53:39;92605.00;;;10.53;63.86
35888;BME280;21990;42.540;23.496;2023-04-12T07:56:06;92594.56;;;10.76;62.39
35888;BME280;21990;42.540;23.496;2023-04-12T07:58:32;92587.31;;;10.95;64.88
35888;BME280;21990;42.540;23.496;2023-04-12T08:00:58;92589.63;;;11.12;63.61
35888;BME280;21990;42.540;23.496;2023-04-12T08:03:24;92595.25;;;11.12;59.72
35888;BME280;21990;42.540;23.496;2023-04-12T08:05:51;92594.47;;;11.04;60.95
35888;BME280;21990;42.540;23.496;2023-04-12T08:08:19;92590.75;;;11.17;61.92
35888;BME280;21990;42.540;23.496;2023-04-12T08:10:49;92590.78;;;11.24;59.85
35888;BME280;21990;42.540;23.496;2023-04-12T08:13:15;92588.13;;;11.26;59.93
35888;BME280;21990;42.540;23.496;2023-04-12T08:15:41;92584.75;;;11.20;59.27
35888;BME280;21990;42.540;23.496;2023-04-12T08:18:08;92579.47;;;11.17;57.70
35888;BME280;21990;42.540;23.496;2023-04-12T08:20:34;92583.63;;;11.23;59.73
35888;BME280;21990;42.540;23.496;2023-04-12T08:22:59;92570.25;;;11.09;57.60
35888;BME280;21990;42.540;23.496;2023-04-12T08:25:25;92572.09;;;10.99;58.42
35888;BME280;21990;42.540;23.496;2023-04-12T08:27:51;92566.25;;;10.81;57.88
35888;BME280;21990;42.540;23.496;2023-04-12T08:30:17;92564.66;;;10.58;59.72
35888;BME280;21990;42.540;23.496;2023-04-12T08:32:43;92577.75;;;10.55;60.23
35888;BME280;21990;42.540;23.496;2023-04-12T08:35:09;92570.97;;;10.51;58.12
35888;BME280;21990;42.540;23.496;2023-04-12T08:37:34;92592.78;;;10.50;58.95
35888;BME280;21990;42.540;23.496;2023-04-12T08:40:05;92571.22;;;10.60;59.55
35888;BME280;21990;42.540;23.496;2023-04-12T08:42:33;92588.22;;;10.83;54.95
35888;BME280;21990;42.540;23.496;2023-04-12T08:45:06;92591.47;;;11.02;54.54
35888;BME280;21990;42.540;23.496;2023-04-12T08:47:40;92579.28;;;11.15;58.85
35888;BME280;21990;42.540;23.496;2023-04-12T08:50:07;92569.16;;;11.42;53.87
35888;BME280;21990;42.540;23.496;2023-04-12T08:52:34;92589.69;;;11.50;54.48
35888;BME280;21990;42.540;23.496;2023-04-12T08:55:06;92587.03;;;11.60;51.62
35888;BME280;21990;42.540;23.496;2023-04-12T08:57:32;92570.50;;;11.64;54.31
35888;BME280;21990;42.540;23.496;2023-04-12T08:59:59;92557.91;;;11.72;52.58
35888;BME280;21990;42.540;23.496;2023-04-12T09:02:26;92561.47;;;11.96;51.62
35888;BME280;21990;42.540;23.496;2023-04-12T09:04:52;92559.59;;;12.13;53.96
35888;BME280;21990;42.540;23.496;2023-04-12T09:07:21;92570.25;;;12.37;51.86
35888;BME280;21990;42.540;23.496;2023-04-12T09:09:55;92555.38;;;12.29;53.23
35888;BME280;21990;42.540;23.496;2023-04-12T09:12:22;92548.59;;;12.40;52.29
35888;BME280;21990;42.540;23.496;2023-04-12T09:15:05;92530.47;;;12.51;51.71
35888;BME280;21990;42.540;23.496;2023-04-12T09:17:34;92552.13;;;12.56;51.23
35888;BME280;21990;42.540;23.496;2023-04-12T09:20:02;92535.38;;;12.50;50.66
35888;BME280;21990;42.540;23.496;2023-04-12T09:22:35;92544.44;;;12.49;49.96
35888;BME280;21990;42.540;23.496;2023-04-12T09:25:01;92515.78;;;12.52;49.46
35888;BME280;21990;42.540;23.496;2023-04-12T09:27:26;92520.69;;;12.52;47.86
35888;BME280;21990;42.540;23.496;2023-04-12T09:30:07;92539.53;;;12.42;48.00
35888;BME280;21990;42.540;23.496;2023-04-12T09:32:32;92529.94;;;12.45;48.17
35888;BME280;21990;42.540;23.496;2023-04-12T09:34:58;92524.84;;;12.43;49.48
35888;BME280;21990;42.540;23.496;2023-04-12T09:37:27;92521.84;;;12.41;49.56
35888;BME280;21990;42.540;23.496;2023-04-12T09:40:06;92529.56;;;12.41;48.68
35888;BME280;21990;42.540;23.496;2023-04-12T09:42:34;92513.91;;;12.47;48.77
35888;BME280;21990;42.540;23.496;2023-04-12T09:45:01;92523.28;;;12.57;47.62
35888;BME280;21990;42.540;23.496;2023-04-12T09:47:43;92514.03;;;12.57;47.74
35888;BME280;21990;42.540;23.496;2023-04-12T09:50:21;92520.66;;;12.59;48.43
35888;BME280;21990;42.540;23.496;2023-04-12T09:52:47;92518.03;;;12.54;47.01
35888;BME280;21990;42.540;23.496;2023-04-12T09:55:14;92511.97;;;12.57;47.56
35888;BME280;21990;42.540;23.496;2023-04-12T09:57:42;92509.19;;;12.50;46.23
35888;BME280;21990;42.540;23.496;2023-04-12T10:00:11;92513.69;;;12.60;45.33
35888;BME280;21990;42.540;23.496;2023-04-12T10:02:42;92500.84;;;12.67;45.88
35888;BME280;21990;42.540;23.496;2023-04-12T10:05:14;92498.94;;;12.69;46.31
35888;BME280;21990;42.540;23.496;2023-04-12T10:07:40;92506.84;;;12.71;46.94
35888;BME280;21990;42.540;23.496;2023-04-12T10:10:12;92504.50;;;12.84;45.40
35888;BME280;21990;42.540;23.496;2023-04-12T10:12:40;92486.41;;;12.88;45.42
35888;BME280;21990;42.540;23.496;2023-04-12T10:15:07;92507.22;;;13.00;43.00
35888;BME280;21990;42.540;23.496;2023-04-12T10:17:46;92493.41;;;13.19;43.97
35888;BME280;21990;42.540;23.496;2023-04-12T10:20:13;92482.72;;;13.35;45.27
35888;BME280;21990;42.540;23.496;2023-04-12T10:22:46;92489.66;;;13.41;45.57
35888;BME280;21990;42.540;23.496;2023-04-12T10:25:14;92479.84;;;13.42;45.00
35888;BME280;21990;42.540;23.496;2023-04-12T10:27:45;92478.78;;;13.55;43.54
35888;BME280;21990;42.540;23.496;2023-04-12T10:32:46;92478.44;;;13.51;40.96
35888;BME280;21990;42.540;23.496;2023-04-12T10:35:13;92478.84;;;13.47;40.34
35888;BME280;21990;42.540;23.496;2023-04-12T10:40:26;92487.38;;;13.40;37.73
35888;BME280;21990;42.540;23.496;2023-04-12T10:43:26;92479.31;;;13.36;37.82
35888;BME280;21990;42.540;23.496;2023-04-12T10:45:52;92486.41;;;13.45;38.21
35888;BME280;21990;42.540;23.496;2023-04-12T10:48:49;92479.94;;;13.52;37.77
35888;BME280;21990;42.540;23.496;2023-04-12T10:51:23;92478.22;;;13.56;37.07
35888;BME280;21990;42.540;23.496;2023-04-12T10:54:29;92472.56;;;13.56;39.87
35888;BME280;21990;42.540;23.496;2023-04-12T10:59:14;92461.69;;;13.87;39.70
35888;BME280;21990;42.540;23.496;2023-04-12T11:02:06;92464.75;;;13.82;38.92
35888;BME280;21990;42.540;23.496;2023-04-12T11:04:27;92437.41;;;13.59;39.22
35888;BME280;21990;42.540;23.496;2023-04-12T11:09:29;92455.28;;;13.69;39.06
35888;BME280;21990;42.540;23.496;2023-04-12T11:14:37;92439.28;;;13.40;38.61
35888;BME280;21990;42.540;23.496;2023-04-12T11:19:55;92429.47;;;13.65;37.29
35888;BME280;21990;42.540;23.496;2023-04-12T11:22:23;92423.63;;;13.63;37.96
35888;BME280;21990;42.540;23.496;2023-04-12T11:24:54;92428.94;;;13.59;36.03
35888;BME280;21990;42.540;23.496;2023-04-12T11:27:22;92425.38;;;13.76;37.16
35888;BME280;21990;42.540;23.496;2023-04-12T11:29:52;92437.59;;;13.61;37.28
35888;BME280;21990;42.540;23.496;2023-04-12T11:32:21;92438.59;;;13.56;34.88
35888;BME280;21990;42.540;23.496;2023-04-12T11:34:47;92422.44;;;13.49;33.60
35888;BME280;21990;42.540;23.496;2023-04-12T11:37:13;92453.38;;;13.47;34.43
35888;BME280;21990;42.540;23.496;2023-04-12T11:39:41;92432.41;;;13.50;33.95
35888;BME280;21990;42.540;23.496;2023-04-12T11:42:20;92445.06;;;13.49;32.48
35888;BME280;21990;42.540;23.496;2023-04-12T11:44:47;92462.88;;;13.42;33.43
35888;BME280;21990;42.540;23.496;2023-04-12T11:47:14;92449.72;;;13.54;34.43
35888;BME280;21990;42.540;23.496;2023-04-12T11:49:47;92440.66;;;13.56;36.12
35888;BME280;21990;42.540;23.496;2023-04-12T11:52:14;92447.09;;;13.73;34.73
35888;BME280;21990;42.540;23.496;2023-04-12T11:54:45;92444.84;;;13.72;34.14
35888;BME280;21990;42.540;23.496;2023-04-12T11:57:12;92430.03;;;13.64;34.98
35888;BME280;21990;42.540;23.496;2023-04-12T11:59:38;92444.34;;;13.66;34.85
35888;BME280;21990;42.540;23.496;2023-04-12T12:02:04;92455.28;;;13.45;35.23
35888;BME280;21990;42.540;23.496;2023-04-12T12:04:31;92455.09;;;13.43;34.45
35888;BME280;21990;42.540;23.496;2023-04-12T12:06:57;92457.72;;;13.48;35.19
35888;BME280;21990;42.540;23.496;2023-04-12T12:09:26;92458.28;;;13.47;34.05
35888;BME280;21990;42.540;23.496;2023-04-12T12:11:53;92453.03;;;13.43;32.41
35888;BME280;21990;42.540;23.496;2023-04-12T12:14:23;92446.56;;;13.50;35.52
35888;BME280;21990;42.540;23.496;2023-04-12T12:16:56;92461.09;;;13.47;33.79
35888;BME280;21990;42.540;23.496;2023-04-12T12:19:35;92455.78;;;13.51;35.35
35888;BME280;21990;42.540;23.496;2023-04-12T12:22:18;92453.09;;;13.60;34.56
35888;BME280;21990;42.540;23.496;2023-04-12T12:27:11;92464.56;;;13.62;34.17
35888;BME280;21990;42.540;23.496;2023-04-12T12:29:37;92456.72;;;13.53;35.17
35888;BME280;21990;42.540;23.496;2023-04-12T12:32:13;92461.31;;;13.66;35.45
35888;BME280;21990;42.540;23.496;2023-04-12T12:34:40;92453.00;;;13.68;35.39
35888;BME280;21990;42.540;23.496;2023-04-12T12:37:07;92452.47;;;13.62;34.64
35888;BME280;21990;42.540;23.496;2023-04-12T12:39:33;92458.16;;;13.62;35.10
35888;BME280;21990;42.540;23.496;2023-04-12T12:42:03;92465.84;;;13.69;34.17
35888;BME280;21990;42.540;23.496;2023-04-12T12:44:30;92456.25;;;13.64;33.68
35888;BME280;21990;42.540;23.496;2023-04-12T12:47:00;92448.34;;;13.63;34.93
35888;BME280;21990;42.540;23.496;2023-04-12T12:49:26;92447.41;;;13.60;34.68
35888;BME280;21990;42.540;23.496;2023-04-12T12:51:52;92467.19;;;13.43;34.84
35888;BME280;21990;42.540;23.496;2023-04-12T12:54:18;92465.44;;;13.48;35.54
35888;BME280;21990;42.540;23.496;2023-04-12T12:56:43;92474.34;;;13.44;34.05
35888;BME280;21990;42.540;23.496;2023-04-12T12:59:09;92454.88;;;13.23;34.25
35888;BME280;21990;42.540;23.496;2023-04-12T13:01:34;92476.38;;;13.26;34.72
35888;BME280;21990;42.540;23.496;2023-04-12T13:04:00;92479.56;;;13.30;34.75
35888;BME280;21990;42.540;23.496;2023-04-12T13:06:25;92465.97;;;13.29;34.47
35888;BME280;21990;42.540;23.496;2023-04-12T13:08:52;92472.75;;;13.34;34.21
35888;BME280;21990;42.540;23.496;2023-04-12T13:11:19;92468.06;;;13.28;35.55
35888;BME280;21990;42.540;23.496;2023-04-12T13:13:45;92472.44;;;13.22;35.46
35888;BME280;21990;42.540;23.496;2023-04-12T13:16:10;92472.81;;;13.26;34.46
35888;BME280;21990;42.540;23.496;2023-04-12T13:18:36;92479.22;;;13.26;33.64
35888;BME280;21990;42.540;23.496;2023-04-12T13:21:02;92471.50;;;13.19;33.19
35888;BME280;21990;42.540;23.496;2023-04-12T13:23:28;92480.94;;;13.22;32.96
35888;BME280;21990;42.540;23.496;2023-04-12T13:25:53;92475.38;;;13.31;33.44